sensor_id;sensor_type;location;lat;lon;timestamp;P1;durP1;ratioP1;P2;durP2;ratioP2
7703;SDS011;3894;49.700;10.770;2023-03-12T00:00:17;15.80;;;3.67;;
7703;SDS011;3894;49.700;10.770;2023-03-12T00:02:53;9.38;;;4.00;;
7703;SDS011;3894;49.700;10.770;2023-03-12T00:05:22;7.00;;;2.40;;
7703;SDS011;3894;49.700;10.770;2023-03-12T00:07:50;15.02;;;2.83;;
7703;SDS011;3894;49.700;10.770;2023-03-12T00:10:26;7.95;;;2.67;;
7703;SDS011;3894;49.700;10.770;2023-03-12T00:15:23;8.00;;;2.60;;
7703;SDS011;3894;49.700;10.770;2023-03-12T00:17:49;6.38;;;2.25;;
7703;SDS011;3894;49.700;10.770;2023-03-12T00:22:50;6.57;;;2.60;;
7703;SDS011;3894;49.700;10.770;2023-03-12T00:25:19;6.15;;;2.50;;
7703;SDS011;3894;49.700;10.770;2023-03-12T00:27:55;7.72;;;2.28;;
7703;SDS011;3894;49.700;10.770;2023-03-12T00:30:20;8.60;;;2.70;;
7703;SDS011;3894;49.700;10.770;2023-03-12T00:32:53;6.72;;;2.40;;
7703;SDS011;3894;49.700;10.770;2023-03-12T00:35:24;7.25;;;2.33;;
7703;SDS011;3894;49.700;10.770;2023-03-12T00:37:52;7.78;;;2.40;;
7703;SDS011;3894;49.700;10.770;2023-03-12T00:40:24;8.40;;;2.78;;
7703;SDS011;3894;49.700;10.770;2023-03-12T00:42:56;10.75;;;3.08;;
7703;SDS011;3894;49.700;10.770;2023-03-12T00:45:24;11.40;;;2.97;;
7703;SDS011;3894;49.700;10.770;2023-03-12T00:47:49;10.15;;;3.28;;
7703;SDS011;3894;49.700;10.770;2023-03-12T00:50:18;8.48;;;3.03;;
7703;SDS011;3894;49.700;10.770;2023-03-12T00:52:47;9.38;;;3.65;;
7703;SDS011;3894;49.700;10.770;2023-03-12T00:55:15;8.50;;;2.45;;
7703;SDS011;3894;49.700;10.770;2023-03-12T00:57:41;6.70;;;2.90;;
7703;SDS011;3894;49.700;10.770;2023-03-12T01:00:09;6.47;;;2.35;;
7703;SDS011;3894;49.700;10.770;2023-03-12T01:02:38;9.00;;;3.25;;
7703;SDS011;3894;49.700;10.770;2023-03-12T01:05:05;9.43;;;3.22;;
7703;SDS011;3894;49.700;10.770;2023-03-12T01:07:35;8.25;;;2.95;;
7703;SDS011;3894;49.700;10.770;2023-03-12T01:10:04;9.32;;;3.38;;
7703;SDS011;3894;49.700;10.770;2023-03-12T01:12:30;10.43;;;3.83;;
7703;SDS011;3894;49.700;10.770;2023-03-12T01:14:59;7.53;;;2.78;;
7703;SDS011;3894;49.700;10.770;2023-03-12T01:19:53;6.70;;;2.40;;
7703;SDS011;3894;49.700;10.770;2023-03-12T01:22:19;6.30;;;2.15;;
7703;SDS011;3894;49.700;10.770;2023-03-12T01:24:50;6.75;;;1.98;;
7703;SDS011;3894;49.700;10.770;2023-03-12T01:27:44;6.90;;;3.53;;
7703;SDS011;3894;49.700;10.770;2023-03-12T01:30:16;7.78;;;1.98;;
7703;SDS011;3894;49.700;10.770;2023-03-12T01:32:44;6.72;;;2.58;;
7703;SDS011;3894;49.700;10.770;2023-03-12T01:37:40;8.48;;;2.30;;
7703;SDS011;3894;49.700;10.770;2023-03-12T01:40:13;5.28;;;1.85;;
7703;SDS011;3894;49.700;10.770;2023-03-12T01:42:50;9.38;;;2.30;;
7703;SDS011;3894;49.700;10.770;2023-03-12T01:48:43;5.70;;;1.92;;
7703;SDS011;3894;49.700;10.770;2023-03-12T01:51:17;7.85;;;2.00;;
7703;SDS011;3894;49.700;10.770;2023-03-12T01:53:47;9.05;;;2.50;;
7703;SDS011;3894;49.700;10.770;2023-03-12T01:56:22;7.78;;;2.25;;
7703;SDS011;3894;49.700;10.770;2023-03-12T01:58:54;5.53;;;1.35;;
7703;SDS011;3894;49.700;10.770;2023-03-12T02:01:25;7.80;;;1.92;;
7703;SDS011;3894;49.700;10.770;2023-03-12T02:03:53;5.25;;;2.08;;
7703;SDS011;3894;49.700;10.770;2023-03-12T02:06:22;5.65;;;1.83;;
7703;SDS011;3894;49.700;10.770;2023-03-12T02:08:53;5.80;;;2.00;;
7703;SDS011;3894;49.700;10.770;2023-03-12T02:11:28;8.65;;;2.35;;
7703;SDS011;3894;49.700;10.770;2023-03-12T02:14:24;5.22;;;1.75;;
7703;SDS011;3894;49.700;10.770;2023-03-12T02:16:53;5.72;;;2.40;;
7703;SDS011;3894;49.700;10.770;2023-03-12T02:19:31;7.57;;;2.33;;
7703;SDS011;3894;49.700;10.770;2023-03-12T02:22:07;6.97;;;2.03;;
7703;SDS011;3894;49.700;10.770;2023-03-12T02:24:42;6.55;;;2.10;;
7703;SDS011;3894;49.700;10.770;2023-03-12T02:27:12;6.50;;;2.25;;
7703;SDS011;3894;49.700;10.770;2023-03-12T02:29:43;7.95;;;2.50;;
7703;SDS011;3894;49.700;10.770;2023-03-12T02:32:16;10.68;;;3.40;;
7703;SDS011;3894;49.700;10.770;2023-03-12T02:34:48;5.43;;;2.33;;
7703;SDS011;3894;49.700;10.770;2023-03-12T02:37:22;6.50;;;2.97;;
7703;SDS011;3894;49.700;10.770;2023-03-12T02:39:52;11.27;;;3.83;;
7703;SDS011;3894;49.700;10.770;2023-03-12T02:42:38;7.80;;;2.83;;
7703;SDS011;3894;49.700;10.770;2023-03-12T02:45:09;7.63;;;2.42;;
7703;SDS011;3894;49.700;10.770;2023-03-12T02:47:40;5.05;;;1.75;;
7703;SDS011;3894;49.700;10.770;2023-03-12T02:50:09;6.43;;;2.20;;
7703;SDS011;3894;49.700;10.770;2023-03-12T02:52:35;8.85;;;2.90;;
7703;SDS011;3894;49.700;10.770;2023-03-12T02:55:02;7.43;;;2.60;;
7703;SDS011;3894;49.700;10.770;2023-03-12T02:57:32;5.55;;;2.35;;
7703;SDS011;3894;49.700;10.770;2023-03-12T03:00:05;8.52;;;2.95;;
7703;SDS011;3894;49.700;10.770;2023-03-12T03:02:41;9.25;;;2.95;;
7703;SDS011;3894;49.700;10.770;2023-03-12T03:05:07;9.23;;;3.33;;
7703;SDS011;3894;49.700;10.770;2023-03-12T03:07:34;10.23;;;3.38;;
7703;SDS011;3894;49.700;10.770;2023-03-12T03:10:03;5.95;;;2.95;;
7703;SDS011;3894;49.700;10.770;2023-03-12T03:12:32;10.55;;;3.20;;
7703;SDS011;3894;49.700;10.770;2023-03-12T03:15:01;9.15;;;2.75;;
7703;SDS011;3894;49.700;10.770;2023-03-12T03:17:35;12.15;;;3.65;;
7703;SDS011;3894;49.700;10.770;2023-03-12T03:20:06;7.20;;;3.05;;
7703;SDS011;3894;49.700;10.770;2023-03-12T03:22:35;7.55;;;3.38;;
7703;SDS011;3894;49.700;10.770;2023-03-12T03:25:02;9.35;;;3.47;;
7703;SDS011;3894;49.700;10.770;2023-03-12T03:27:52;9.52;;;3.50;;
7703;SDS011;3894;49.700;10.770;2023-03-12T03:30:18;7.80;;;3.25;;
7703;SDS011;3894;49.700;10.770;2023-03-12T03:32:49;7.30;;;2.55;;
7703;SDS011;3894;49.700;10.770;2023-03-12T03:35:32;9.25;;;3.63;;
7703;SDS011;3894;49.700;10.770;2023-03-12T03:38:01;10.88;;;3.60;;
7703;SDS011;3894;49.700;10.770;2023-03-12T03:40:32;7.88;;;3.55;;
7703;SDS011;3894;49.700;10.770;2023-03-12T03:43:04;8.98;;;3.20;;
7703;SDS011;3894;49.700;10.770;2023-03-12T03:45:29;9.77;;;3.33;;
7703;SDS011;3894;49.700;10.770;2023-03-12T03:47:58;8.82;;;3.53;;
7703;SDS011;3894;49.700;10.770;2023-03-12T03:50:27;9.55;;;3.88;;
7703;SDS011;3894;49.700;10.770;2023-03-12T03:52:58;7.82;;;3.58;;
7703;SDS011;3894;49.700;10.770;2023-03-12T03:55:29;9.90;;;3.58;;
7703;SDS011;3894;49.700;10.770;2023-03-12T03:57:57;7.30;;;2.95;;
7703;SDS011;3894;49.700;10.770;2023-03-12T04:00:23;8.73;;;3.90;;
7703;SDS011;3894;49.700;10.770;2023-03-12T04:02:59;9.70;;;3.83;;
7703;SDS011;3894;49.700;10.770;2023-03-12T04:05:27;8.88;;;3.60;;
7703;SDS011;3894;49.700;10.770;2023-03-12T04:07:56;8.45;;;2.83;;
7703;SDS011;3894;49.700;10.770;2023-03-12T04:10:27;8.05;;;3.78;;
7703;SDS011;3894;49.700;10.770;2023-03-12T04:12:57;7.18;;;3.17;;
7703;SDS011;3894;49.700;10.770;2023-03-12T04:15:25;9.52;;;3.13;;
7703;SDS011;3894;49.700;10.770;2023-03-12T04:17:51;9.65;;;3.63;;
7703;SDS011;3894;49.700;10.770;2023-03-12T04:20:20;7.32;;;3.60;;
7703;SDS011;3894;49.700;10.770;2023-03-12T04:22:54;10.43;;;3.97;;
7703;SDS011;3894;49.700;10.770;2023-03-12T04:25:32;8.57;;;3.47;;
7703;SDS011;3894;49.700;10.770;2023-03-12T04:28:01;10.45;;;3.83;;
7703;SDS011;3894;49.700;10.770;2023-03-12T04:30:27;9.80;;;3.88;;
7703;SDS011;3894;49.700;10.770;2023-03-12T04:32:53;9.05;;;4.07;;
7703;SDS011;3894;49.700;10.770;2023-03-12T04:35:19;8.07;;;3.47;;
7703;SDS011;3894;49.700;10.770;2023-03-12T04:37:48;9.35;;;3.20;;
7703;SDS011;3894;49.700;10.770;2023-03-12T04:40:24;12.80;;;4.15;;
7703;SDS011;3894;49.700;10.770;2023-03-12T04:42:50;10.80;;;3.92;;
7703;SDS011;3894;49.700;10.770;2023-03-12T04:45:15;10.90;;;3.53;;
7703;SDS011;3894;49.700;10.770;2023-03-12T04:47:41;7.88;;;3.55;;
7703;SDS011;3894;49.700;10.770;2023-03-12T04:50:19;8.40;;;3.85;;
7703;SDS011;3894;49.700;10.770;2023-03-12T04:52:45;9.95;;;4.78;;
7703;SDS011;3894;49.700;10.770;2023-03-12T04:55:14;7.78;;;3.85;;
7703;SDS011;3894;49.700;10.770;2023-03-12T04:57:47;8.35;;;3.38;;
7703;SDS011;3894;49.700;10.770;2023-03-12T05:00:15;7.63;;;3.42;;
7703;SDS011;3894;49.700;10.770;2023-03-12T05:02:56;10.38;;;5.88;;
7703;SDS011;3894;49.700;10.770;2023-03-12T05:05:22;9.45;;;3.70;;
7703;SDS011;3894;49.700;10.770;2023-03-12T05:07:54;8.10;;;3.70;;
7703;SDS011;3894;49.700;10.770;2023-03-12T05:10:19;9.63;;;3.92;;
7703;SDS011;3894;49.700;10.770;2023-03-12T05:12:51;10.80;;;5.32;;
7703;SDS011;3894;49.700;10.770;2023-03-12T05:15:17;12.52;;;6.32;;
7703;SDS011;3894;49.700;10.770;2023-03-12T05:17:51;10.45;;;5.10;;
7703;SDS011;3894;49.700;10.770;2023-03-12T05:20:20;11.95;;;4.70;;
7703;SDS011;3894;49.700;10.770;2023-03-12T05:22:46;8.77;;;3.85;;
7703;SDS011;3894;49.700;10.770;2023-03-12T05:25:12;9.00;;;3.95;;
7703;SDS011;3894;49.700;10.770;2023-03-12T05:27:41;11.95;;;3.85;;
7703;SDS011;3894;49.700;10.770;2023-03-12T05:32:43;9.65;;;3.97;;
7703;SDS011;3894;49.700;10.770;2023-03-12T05:35:17;10.32;;;4.25;;
7703;SDS011;3894;49.700;10.770;2023-03-12T05:37:46;12.52;;;4.70;;
7703;SDS011;3894;49.700;10.770;2023-03-12T05:40:15;10.00;;;4.18;;
7703;SDS011;3894;49.700;10.770;2023-03-12T05:42:40;9.07;;;3.83;;
7703;SDS011;3894;49.700;10.770;2023-03-12T05:45:06;9.70;;;4.10;;
7703;SDS011;3894;49.700;10.770;2023-03-12T05:47:36;9.32;;;4.72;;
7703;SDS011;3894;49.700;10.770;2023-03-12T05:50:07;9.98;;;4.43;;
7703;SDS011;3894;49.700;10.770;2023-03-12T05:52:35;11.95;;;5.00;;
7703;SDS011;3894;49.700;10.770;2023-03-12T05:55:03;8.70;;;3.80;;
7703;SDS011;3894;49.700;10.770;2023-03-12T05:57:32;11.38;;;4.55;;
7703;SDS011;3894;49.700;10.770;2023-03-12T06:00:03;14.35;;;4.70;;
7703;SDS011;3894;49.700;10.770;2023-03-12T06:02:43;11.50;;;4.40;;
7703;SDS011;3894;49.700;10.770;2023-03-12T06:05:21;14.00;;;5.40;;
7703;SDS011;3894;49.700;10.770;2023-03-12T06:07:46;11.63;;;4.88;;
7703;SDS011;3894;49.700;10.770;2023-03-12T06:10:12;10.80;;;4.55;;
7703;SDS011;3894;49.700;10.770;2023-03-12T06:12:38;12.32;;;4.38;;
7703;SDS011;3894;49.700;10.770;2023-03-12T06:15:13;10.43;;;4.18;;
7703;SDS011;3894;49.700;10.770;2023-03-12T06:17:44;12.55;;;4.90;;
7703;SDS011;3894;49.700;10.770;2023-03-12T06:20:13;14.40;;;4.85;;
7703;SDS011;3894;49.700;10.770;2023-03-12T06:22:45;8.75;;;4.32;;
7703;SDS011;3894;49.700;10.770;2023-03-12T06:25:13;13.80;;;4.50;;
7703;SDS011;3894;49.700;10.770;2023-03-12T06:27:39;9.93;;;4.38;;
7703;SDS011;3894;49.700;10.770;2023-03-12T06:30:08;10.68;;;3.83;;
7703;SDS011;3894;49.700;10.770;2023-03-12T06:32:44;10.95;;;4.63;;
7703;SDS011;3894;49.700;10.770;2023-03-12T06:35:10;9.15;;;3.97;;
7703;SDS011;3894;49.700;10.770;2023-03-12T06:37:35;11.68;;;4.53;;
7703;SDS011;3894;49.700;10.770;2023-03-12T06:40:12;9.18;;;3.70;;
7703;SDS011;3894;49.700;10.770;2023-03-12T06:42:41;8.60;;;3.58;;
7703;SDS011;3894;49.700;10.770;2023-03-12T06:45:07;10.38;;;3.38;;
7703;SDS011;3894;49.700;10.770;2023-03-12T06:47:33;8.95;;;3.85;;
7703;SDS011;3894;49.700;10.770;2023-03-12T06:49:59;10.85;;;4.25;;
7703;SDS011;3894;49.700;10.770;2023-03-12T06:52:26;11.30;;;4.10;;
7703;SDS011;3894;49.700;10.770;2023-03-12T06:54:54;12.32;;;4.60;;
7703;SDS011;3894;49.700;10.770;2023-03-12T06:57:19;11.23;;;4.38;;
7703;SDS011;3894;49.700;10.770;2023-03-12T06:59:45;11.38;;;4.78;;
7703;SDS011;3894;49.700;10.770;2023-03-12T07:02:18;13.75;;;4.18;;
7703;SDS011;3894;49.700;10.770;2023-03-12T07:07:09;8.05;;;4.00;;
7703;SDS011;3894;49.700;10.770;2023-03-12T07:09:37;8.30;;;4.32;;
7703;SDS011;3894;49.700;10.770;2023-03-12T07:12:03;10.45;;;4.07;;
7703;SDS011;3894;49.700;10.770;2023-03-12T07:14:29;10.15;;;3.80;;
7703;SDS011;3894;49.700;10.770;2023-03-12T07:16:55;7.90;;;3.47;;
7703;SDS011;3894;49.700;10.770;2023-03-12T07:19:21;10.57;;;4.00;;
7703;SDS011;3894;49.700;10.770;2023-03-12T07:21:58;11.95;;;4.10;;
7703;SDS011;3894;49.700;10.770;2023-03-12T07:24:24;12.23;;;3.58;;
7703;SDS011;3894;49.700;10.770;2023-03-12T07:26:50;9.00;;;4.60;;
7703;SDS011;3894;49.700;10.770;2023-03-12T07:29:16;8.75;;;4.05;;
7703;SDS011;3894;49.700;10.770;2023-03-12T07:31:41;12.80;;;4.03;;
7703;SDS011;3894;49.700;10.770;2023-03-12T07:34:07;8.82;;;3.50;;
7703;SDS011;3894;49.700;10.770;2023-03-12T07:36:33;9.70;;;4.78;;
7703;SDS011;3894;49.700;10.770;2023-03-12T07:38:59;10.43;;;4.20;;
7703;SDS011;3894;49.700;10.770;2023-03-12T07:41:24;11.35;;;4.32;;
7703;SDS011;3894;49.700;10.770;2023-03-12T07:43:52;11.73;;;4.05;;
7703;SDS011;3894;49.700;10.770;2023-03-12T07:46:18;9.35;;;4.28;;
7703;SDS011;3894;49.700;10.770;2023-03-12T07:48:43;8.25;;;3.72;;
7703;SDS011;3894;49.700;10.770;2023-03-12T07:51:09;9.88;;;3.53;;
7703;SDS011;3894;49.700;10.770;2023-03-12T07:53:35;8.30;;;3.30;;
7703;SDS011;3894;49.700;10.770;2023-03-12T07:56:01;9.85;;;3.88;;
7703;SDS011;3894;49.700;10.770;2023-03-12T07:58:26;9.52;;;3.97;;
7703;SDS011;3894;49.700;10.770;2023-03-12T08:00:53;12.38;;;4.00;;
7703;SDS011;3894;49.700;10.770;2023-03-12T08:03:20;8.85;;;3.30;;
7703;SDS011;3894;49.700;10.770;2023-03-12T08:05:55;8.55;;;3.55;;
7703;SDS011;3894;49.700;10.770;2023-03-12T08:08:23;6.78;;;3.10;;
7703;SDS011;3894;49.700;10.770;2023-03-12T08:10:48;11.02;;;4.15;;
7703;SDS011;3894;49.700;10.770;2023-03-12T08:13:14;9.20;;;3.80;;
7703;SDS011;3894;49.700;10.770;2023-03-12T08:15:40;8.60;;;3.45;;
7703;SDS011;3894;49.700;10.770;2023-03-12T08:18:08;9.88;;;3.40;;
7703;SDS011;3894;49.700;10.770;2023-03-12T08:20:34;12.85;;;4.10;;
7703;SDS011;3894;49.700;10.770;2023-03-12T08:23:00;9.27;;;2.88;;
7703;SDS011;3894;49.700;10.770;2023-03-12T08:25:26;12.48;;;3.78;;
7703;SDS011;3894;49.700;10.770;2023-03-12T08:27:52;10.95;;;3.85;;
7703;SDS011;3894;49.700;10.770;2023-03-12T08:30:18;9.52;;;3.42;;
7703;SDS011;3894;49.700;10.770;2023-03-12T08:32:47;10.15;;;4.68;;
7703;SDS011;3894;49.700;10.770;2023-03-12T08:35:15;11.30;;;4.20;;
7703;SDS011;3894;49.700;10.770;2023-03-12T08:40:29;9.23;;;3.65;;
7703;SDS011;3894;49.700;10.770;2023-03-12T08:42:55;6.63;;;2.63;;
7703;SDS011;3894;49.700;10.770;2023-03-12T08:45:21;11.00;;;3.40;;
7703;SDS011;3894;49.700;10.770;2023-03-12T08:47:47;8.73;;;3.47;;
7703;SDS011;3894;49.700;10.770;2023-03-12T08:50:13;9.32;;;3.45;;
7703;SDS011;3894;49.700;10.770;2023-03-12T08:52:46;13.85;;;6.82;;
7703;SDS011;3894;49.700;10.770;2023-03-12T08:55:15;10.15;;;4.32;;
7703;SDS011;3894;49.700;10.770;2023-03-12T08:57:41;9.93;;;3.92;;
7703;SDS011;3894;49.700;10.770;2023-03-12T09:00:09;10.30;;;4.53;;
7703;SDS011;3894;49.700;10.770;2023-03-12T09:02:45;7.15;;;3.53;;
7703;SDS011;3894;49.700;10.770;2023-03-12T09:05:26;8.80;;;3.22;;
7703;SDS011;3894;49.700;10.770;2023-03-12T09:07:57;9.27;;;2.88;;
7703;SDS011;3894;49.700;10.770;2023-03-12T09:10:23;6.38;;;2.63;;
7703;SDS011;3894;49.700;10.770;2023-03-12T09:12:49;9.80;;;3.65;;
7703;SDS011;3894;49.700;10.770;2023-03-12T09:15:22;7.55;;;3.30;;
7703;SDS011;3894;49.700;10.770;2023-03-12T09:17:48;5.45;;;2.08;;
7703;SDS011;3894;49.700;10.770;2023-03-12T09:20:14;7.47;;;2.70;;
7703;SDS011;3894;49.700;10.770;2023-03-12T09:22:50;8.27;;;3.33;;
7703;SDS011;3894;49.700;10.770;2023-03-12T09:25:19;8.23;;;2.65;;
7703;SDS011;3894;49.700;10.770;2023-03-12T09:27:53;5.53;;;2.08;;
7703;SDS011;3894;49.700;10.770;2023-03-12T09:30:19;8.82;;;2.60;;
7703;SDS011;3894;49.700;10.770;2023-03-12T09:32:47;6.63;;;2.15;;
7703;SDS011;3894;49.700;10.770;2023-03-12T09:35:13;7.50;;;2.42;;
7703;SDS011;3894;49.700;10.770;2023-03-12T09:37:42;7.15;;;2.38;;
7703;SDS011;3894;49.700;10.770;2023-03-12T09:40:14;6.03;;;2.03;;
7703;SDS011;3894;49.700;10.770;2023-03-12T09:42:45;8.38;;;3.05;;
7703;SDS011;3894;49.700;10.770;2023-03-12T09:45:20;7.40;;;2.72;;
7703;SDS011;3894;49.700;10.770;2023-03-12T09:47:50;7.05;;;2.40;;
7703;SDS011;3894;49.700;10.770;2023-03-12T09:53:38;12.60;;;5.35;;
7703;SDS011;3894;49.700;10.770;2023-03-12T09:56:37;7.95;;;3.30;;
7703;SDS011;3894;49.700;10.770;2023-03-12T10:22:31;6.22;;;2.42;;
7703;SDS011;3894;49.700;10.770;2023-03-12T10:25:26;5.97;;;1.63;;
7703;SDS011;3894;49.700;10.770;2023-03-12T10:28:18;7.25;;;2.03;;
7703;SDS011;3894;49.700;10.770;2023-03-12T10:30:49;6.55;;;1.95;;
7703;SDS011;3894;49.700;10.770;2023-03-12T10:33:19;8.00;;;2.47;;
7703;SDS011;3894;49.700;10.770;2023-03-12T10:38:23;6.00;;;2.38;;
7703;SDS011;3894;49.700;10.770;2023-03-12T10:40:56;5.10;;;1.85;;
7703;SDS011;3894;49.700;10.770;2023-03-12T10:43:23;8.52;;;2.95;;
7703;SDS011;3894;49.700;10.770;2023-03-12T10:48:31;10.40;;;2.65;;
7703;SDS011;3894;49.700;10.770;2023-03-12T10:51:08;8.82;;;2.58;;
7703;SDS011;3894;49.700;10.770;2023-03-12T10:53:44;22.42;;;11.27;;
7703;SDS011;3894;49.700;10.770;2023-03-12T10:56:15;8.30;;;2.67;;
7703;SDS011;3894;49.700;10.770;2023-03-12T10:58:46;10.45;;;2.95;;
7703;SDS011;3894;49.700;10.770;2023-03-12T11:03:45;9.90;;;2.25;;
7703;SDS011;3894;49.700;10.770;2023-03-12T11:06:46;8.15;;;2.42;;
7703;SDS011;3894;49.700;10.770;2023-03-12T11:09:10;8.68;;;2.80;;
7703;SDS011;3894;49.700;10.770;2023-03-12T11:12:01;7.20;;;2.60;;
7703;SDS011;3894;49.700;10.770;2023-03-12T11:17:47;8.77;;;2.65;;
7703;SDS011;3894;49.700;10.770;2023-03-12T11:21:13;7.50;;;3.03;;
7703;SDS011;3894;49.700;10.770;2023-03-12T11:24:13;10.73;;;2.90;;
7703;SDS011;3894;49.700;10.770;2023-03-12T11:32:14;7.38;;;2.33;;
7703;SDS011;3894;49.700;10.770;2023-03-12T11:34:47;9.10;;;2.97;;
7703;SDS011;3894;49.700;10.770;2023-03-12T12:11:06;7.65;;;3.00;;
7703;SDS011;3894;49.700;10.770;2023-03-12T20:31:41;15.07;;;5.80;;
7703;SDS011;3894;49.700;10.770;2023-03-12T20:47:43;13.57;;;4.00;;
7703;SDS011;3894;49.700;10.770;2023-03-12T22:16:13;29.55;;;7.80;;
7703;SDS011;3894;49.700;10.770;2023-03-12T22:18:50;26.45;;;5.90;;
7703;SDS011;3894;49.700;10.770;2023-03-12T22:21:33;22.25;;;4.90;;
7703;SDS011;3894;49.700;10.770;2023-03-12T22:24:12;35.10;;;8.38;;
7703;SDS011;3894;49.700;10.770;2023-03-12T22:26:45;25.95;;;7.25;;
7703;SDS011;3894;49.700;10.770;2023-03-12T22:29:17;30.02;;;7.05;;
7703;SDS011;3894;49.700;10.770;2023-03-12T22:31:44;32.40;;;8.57;;
7703;SDS011;3894;49.700;10.770;2023-03-12T22:34:21;15.48;;;4.70;;
7703;SDS011;3894;49.700;10.770;2023-03-12T22:36:50;24.55;;;7.28;;
7703;SDS011;3894;49.700;10.770;2023-03-12T22:39:22;27.30;;;7.30;;
7703;SDS011;3894;49.700;10.770;2023-03-12T22:52:16;11.50;;;3.08;;
7703;SDS011;3894;49.700;10.770;2023-03-12T22:54:42;11.75;;;2.95;;
7703;SDS011;3894;49.700;10.770;2023-03-12T22:57:11;13.45;;;2.38;;
7703;SDS011;3894;49.700;10.770;2023-03-12T22:59:37;12.30;;;1.83;;
7703;SDS011;3894;49.700;10.770;2023-03-12T23:02:06;8.75;;;1.90;;
7703;SDS011;3894;49.700;10.770;2023-03-12T23:04:32;9.18;;;1.13;;
7703;SDS011;3894;49.700;10.770;2023-03-12T23:07:04;12.32;;;2.15;;
7703;SDS011;3894;49.700;10.770;2023-03-12T23:09:33;10.10;;;2.75;;
7703;SDS011;3894;49.700;10.770;2023-03-12T23:12:09;10.60;;;3.03;;
7703;SDS011;3894;49.700;10.770;2023-03-12T23:14:38;16.65;;;5.22;;
7703;SDS011;3894;49.700;10.770;2023-03-12T23:17:15;16.48;;;3.65;;
7703;SDS011;3894;49.700;10.770;2023-03-12T23:20:07;10.93;;;2.88;;
7703;SDS011;3894;49.700;10.770;2023-03-12T23:22:37;17.73;;;4.20;;
7703;SDS011;3894;49.700;10.770;2023-03-12T23:25:22;11.43;;;2.45;;
7703;SDS011;3894;49.700;10.770;2023-03-12T23:27:52;11.73;;;2.50;;
7703;SDS011;3894;49.700;10.770;2023-03-12T23:30:25;11.38;;;1.70;;
7703;SDS011;3894;49.700;10.770;2023-03-12T23:33:01;9.23;;;1.67;;
7703;SDS011;3894;49.700;10.770;2023-03-12T23:35:36;11.60;;;2.38;;
7703;SDS011;3894;49.700;10.770;2023-03-12T23:40:44;12.57;;;2.70;;
7703;SDS011;3894;49.700;10.770;2023-03-12T23:43:30;16.15;;;4.60;;
7703;SDS011;3894;49.700;10.770;2023-03-12T23:46:02;11.85;;;4.63;;
7703;SDS011;3894;49.700;10.770;2023-03-12T23:48:33;12.75;;;2.95;;
7703;SDS011;3894;49.700;10.770;2023-03-12T23:53:29;8.35;;;2.53;;
7703;SDS011;3894;49.700;10.770;2023-03-12T23:55:59;14.10;;;2.67;;
7703;SDS011;3894;49.700;10.770;2023-03-12T23:58:27;9.40;;;3.13;;
